sensor_id;sensor_type;location;lat;lon;timestamp;pressure;altitude;pressure_sealevel;temperature
68127;BMP180;54931;52.098;21.006;2023-08-12T00:00:27;100891.60;;;10.80
68127;BMP180;54931;52.098;21.006;2023-08-12T00:03:16;100899.60;;;10.80
68127;BMP180;54931;52.098;21.006;2023-08-12T00:05:45;100896.20;;;10.70
68127;BMP180;54931;52.098;21.006;2023-08-12T00:08:13;100895.60;;;10.70
68127;BMP180;54931;52.098;21.006;2023-08-12T00:10:40;100897.40;;;10.68
68127;BMP180;54931;52.098;21.006;2023-08-12T00:13:08;100897.80;;;10.60
68127;BMP180;54931;52.098;21.006;2023-08-12T00:15:35;100902.60;;;10.60
68127;BMP180;54931;52.098;21.006;2023-08-12T00:18:04;100902.20;;;10.54
68127;BMP180;54931;52.098;21.006;2023-08-12T00:20:34;100898.60;;;10.50
68127;BMP180;54931;52.098;21.006;2023-08-12T00:23:02;100903.20;;;10.50
68127;BMP180;54931;52.098;21.006;2023-08-12T00:25:30;100902.40;;;10.50
68127;BMP180;54931;52.098;21.006;2023-08-12T00:27:58;100902.60;;;10.40
68127;BMP180;54931;52.098;21.006;2023-08-12T00:30:25;100905.80;;;10.40
68127;BMP180;54931;52.098;21.006;2023-08-12T00:32:53;100903.20;;;10.40
68127;BMP180;54931;52.098;21.006;2023-08-12T00:35:21;100904.40;;;10.30
68127;BMP180;54931;52.098;21.006;2023-08-12T00:37:48;100901.00;;;10.30
68127;BMP180;54931;52.098;21.006;2023-08-12T00:40:16;100898.00;;;10.24
68127;BMP180;54931;52.098;21.006;2023-08-12T00:42:44;100893.80;;;10.20
68127;BMP180;54931;52.098;21.006;2023-08-12T00:45:11;100895.80;;;10.20
68127;BMP180;54931;52.098;21.006;2023-08-12T00:47:41;100898.20;;;10.18
68127;BMP180;54931;52.098;21.006;2023-08-12T00:50:13;100895.40;;;10.12
68127;BMP180;54931;52.098;21.006;2023-08-12T00:52:42;100895.20;;;10.10
68127;BMP180;54931;52.098;21.006;2023-08-12T00:55:10;100894.40;;;10.10
68127;BMP180;54931;52.098;21.006;2023-08-12T00:57:38;100898.00;;;10.10
68127;BMP180;54931;52.098;21.006;2023-08-12T01:00:07;100895.40;;;10.10
68127;BMP180;54931;52.098;21.006;2023-08-12T01:02:36;100891.20;;;10.10
68127;BMP180;54931;52.098;21.006;2023-08-12T01:05:04;100891.60;;;10.02
68127;BMP180;54931;52.098;21.006;2023-08-12T01:07:32;100891.00;;;10.00
68127;BMP180;54931;52.098;21.006;2023-08-12T01:10:01;100891.20;;;10.00
68127;BMP180;54931;52.098;21.006;2023-08-12T01:12:37;100889.00;;;10.00
68127;BMP180;54931;52.098;21.006;2023-08-12T01:15:11;100889.60;;;9.90
68127;BMP180;54931;52.098;21.006;2023-08-12T01:17:44;100883.20;;;9.90
68127;BMP180;54931;52.098;21.006;2023-08-12T01:20:14;100889.40;;;9.90
68127;BMP180;54931;52.098;21.006;2023-08-12T01:22:45;100892.60;;;9.90
68127;BMP180;54931;52.098;21.006;2023-08-12T01:25:14;100892.20;;;9.90
68127;BMP180;54931;52.098;21.006;2023-08-12T01:27:42;100889.20;;;9.90
68127;BMP180;54931;52.098;21.006;2023-08-12T01:30:11;100885.60;;;9.88
68127;BMP180;54931;52.098;21.006;2023-08-12T01:32:57;100884.00;;;9.80
68127;BMP180;54931;52.098;21.006;2023-08-12T01:35:40;100888.00;;;9.80
68127;BMP180;54931;52.098;21.006;2023-08-12T01:38:09;100882.60;;;9.80
68127;BMP180;54931;52.098;21.006;2023-08-12T01:40:39;100880.40;;;9.80
68127;BMP180;54931;52.098;21.006;2023-08-12T01:43:08;100885.80;;;9.70
68127;BMP180;54931;52.098;21.006;2023-08-12T01:45:35;100883.20;;;9.70
68127;BMP180;54931;52.098;21.006;2023-08-12T01:48:05;100888.00;;;9.70
68127;BMP180;54931;52.098;21.006;2023-08-12T01:50:33;100886.40;;;9.60
68127;BMP180;54931;52.098;21.006;2023-08-12T01:53:00;100878.00;;;9.60
68127;BMP180;54931;52.098;21.006;2023-08-12T01:55:28;100877.80;;;9.60
68127;BMP180;54931;52.098;21.006;2023-08-12T01:57:56;100881.60;;;9.54
68127;BMP180;54931;52.098;21.006;2023-08-12T02:00:24;100887.20;;;9.50
68127;BMP180;54931;52.098;21.006;2023-08-12T02:02:51;100887.20;;;9.50
68127;BMP180;54931;52.098;21.006;2023-08-12T02:05:19;100889.20;;;9.50
68127;BMP180;54931;52.098;21.006;2023-08-12T02:07:46;100886.60;;;9.50
68127;BMP180;54931;52.098;21.006;2023-08-12T02:10:16;100887.00;;;9.50
68127;BMP180;54931;52.098;21.006;2023-08-12T02:12:44;100882.80;;;9.50
68127;BMP180;54931;52.098;21.006;2023-08-12T02:15:11;100885.00;;;9.46
68127;BMP180;54931;52.098;21.006;2023-08-12T02:17:39;100886.80;;;9.40
68127;BMP180;54931;52.098;21.006;2023-08-12T02:20:08;100892.00;;;9.40
68127;BMP180;54931;52.098;21.006;2023-08-12T02:22:35;100887.20;;;9.40
68127;BMP180;54931;52.098;21.006;2023-08-12T02:25:04;100883.40;;;9.40
68127;BMP180;54931;52.098;21.006;2023-08-12T02:27:32;100881.20;;;9.40
68127;BMP180;54931;52.098;21.006;2023-08-12T02:29:59;100877.20;;;9.40
68127;BMP180;54931;52.098;21.006;2023-08-12T02:32:27;100879.00;;;9.40
68127;BMP180;54931;52.098;21.006;2023-08-12T02:34:55;100881.80;;;9.30
68127;BMP180;54931;52.098;21.006;2023-08-12T02:37:22;100880.40;;;9.30
68127;BMP180;54931;52.098;21.006;2023-08-12T02:39:50;100878.60;;;9.30
68127;BMP180;54931;52.098;21.006;2023-08-12T02:42:17;100886.20;;;9.30
68127;BMP180;54931;52.098;21.006;2023-08-12T02:44:45;100883.60;;;9.22
68127;BMP180;54931;52.098;21.006;2023-08-12T02:47:13;100881.20;;;9.20
68127;BMP180;54931;52.098;21.006;2023-08-12T02:49:41;100882.00;;;9.20
68127;BMP180;54931;52.098;21.006;2023-08-12T02:52:11;100889.00;;;9.20
68127;BMP180;54931;52.098;21.006;2023-08-12T02:54:38;100888.40;;;9.20
68127;BMP180;54931;52.098;21.006;2023-08-12T02:57:06;100890.80;;;9.20
68127;BMP180;54931;52.098;21.006;2023-08-12T02:59:33;100893.00;;;9.20
68127;BMP180;54931;52.098;21.006;2023-08-12T03:02:01;100894.20;;;9.20
68127;BMP180;54931;52.098;21.006;2023-08-12T03:04:30;100901.40;;;9.18
68127;BMP180;54931;52.098;21.006;2023-08-12T03:06:58;100905.40;;;9.10
68127;BMP180;54931;52.098;21.006;2023-08-12T03:09:25;100905.40;;;9.10
68127;BMP180;54931;52.098;21.006;2023-08-12T03:11:53;100901.80;;;9.10
68127;BMP180;54931;52.098;21.006;2023-08-12T03:14:20;100903.80;;;9.10
68127;BMP180;54931;52.098;21.006;2023-08-12T03:16:48;100901.00;;;9.10
68127;BMP180;54931;52.098;21.006;2023-08-12T03:19:16;100903.20;;;9.10
68127;BMP180;54931;52.098;21.006;2023-08-12T03:21:43;100910.00;;;9.10
68127;BMP180;54931;52.098;21.006;2023-08-12T03:24:11;100908.20;;;9.10
68127;BMP180;54931;52.098;21.006;2023-08-12T03:26:39;100912.80;;;9.10
68127;BMP180;54931;52.098;21.006;2023-08-12T03:29:07;100913.00;;;9.20
68127;BMP180;54931;52.098;21.006;2023-08-12T03:31:34;100915.60;;;9.20
68127;BMP180;54931;52.098;21.006;2023-08-12T03:34:03;100916.20;;;9.20
68127;BMP180;54931;52.098;21.006;2023-08-12T03:36:30;100914.40;;;9.20
68127;BMP180;54931;52.098;21.006;2023-08-12T03:38:59;100921.00;;;9.20
68127;BMP180;54931;52.098;21.006;2023-08-12T03:41:27;100923.40;;;9.20
68127;BMP180;54931;52.098;21.006;2023-08-12T03:43:54;100923.80;;;9.20
68127;BMP180;54931;52.098;21.006;2023-08-12T03:46:22;100925.40;;;9.22
68127;BMP180;54931;52.098;21.006;2023-08-12T03:48:50;100926.60;;;9.30
68127;BMP180;54931;52.098;21.006;2023-08-12T03:51:18;100916.40;;;9.30
68127;BMP180;54931;52.098;21.006;2023-08-12T03:53:47;100916.00;;;9.40
68127;BMP180;54931;52.098;21.006;2023-08-12T03:56:14;100920.00;;;9.40
68127;BMP180;54931;52.098;21.006;2023-08-12T03:58:43;100921.40;;;9.44
68127;BMP180;54931;52.098;21.006;2023-08-12T04:01:11;100920.00;;;9.50
68127;BMP180;54931;52.098;21.006;2023-08-12T04:03:38;100925.40;;;9.50
68127;BMP180;54931;52.098;21.006;2023-08-12T04:06:05;100922.80;;;9.60
68127;BMP180;54931;52.098;21.006;2023-08-12T04:08:33;100923.80;;;9.60
68127;BMP180;54931;52.098;21.006;2023-08-12T04:11:01;100931.20;;;9.70
68127;BMP180;54931;52.098;21.006;2023-08-12T04:13:29;100925.60;;;9.80
68127;BMP180;54931;52.098;21.006;2023-08-12T04:15:57;100929.40;;;9.90
68127;BMP180;54931;52.098;21.006;2023-08-12T04:18:25;100926.40;;;10.00
68127;BMP180;54931;52.098;21.006;2023-08-12T04:20:53;100926.20;;;10.10
68127;BMP180;54931;52.098;21.006;2023-08-12T04:23:21;100922.20;;;10.20
68127;BMP180;54931;52.098;21.006;2023-08-12T04:25:50;100921.80;;;10.40
68127;BMP180;54931;52.098;21.006;2023-08-12T04:28:18;100926.40;;;10.50
68127;BMP180;54931;52.098;21.006;2023-08-12T04:30:47;100923.00;;;10.70
68127;BMP180;54931;52.098;21.006;2023-08-12T04:33:18;100923.80;;;10.86
68127;BMP180;54931;52.098;21.006;2023-08-12T04:35:48;100924.80;;;11.06
68127;BMP180;54931;52.098;21.006;2023-08-12T04:38:15;100924.40;;;11.34
68127;BMP180;54931;52.098;21.006;2023-08-12T04:40:43;100932.80;;;11.80
68127;BMP180;54931;52.098;21.006;2023-08-12T04:43:10;100938.80;;;12.32
68127;BMP180;54931;52.098;21.006;2023-08-12T04:45:39;100934.60;;;12.84
68127;BMP180;54931;52.098;21.006;2023-08-12T04:48:06;100935.60;;;13.42
68127;BMP180;54931;52.098;21.006;2023-08-12T04:50:35;100931.20;;;13.96
68127;BMP180;54931;52.098;21.006;2023-08-12T04:53:03;100934.20;;;14.54
68127;BMP180;54931;52.098;21.006;2023-08-12T04:55:32;100936.60;;;15.06
68127;BMP180;54931;52.098;21.006;2023-08-12T04:58:00;100932.80;;;15.54
68127;BMP180;54931;52.098;21.006;2023-08-12T05:00:28;100928.40;;;16.12
68127;BMP180;54931;52.098;21.006;2023-08-12T05:02:56;100929.00;;;16.68
68127;BMP180;54931;52.098;21.006;2023-08-12T05:05:26;100929.00;;;17.20
68127;BMP180;54931;52.098;21.006;2023-08-12T05:07:54;100925.40;;;17.70
68127;BMP180;54931;52.098;21.006;2023-08-12T05:10:22;100924.00;;;18.10
68127;BMP180;54931;52.098;21.006;2023-08-12T05:12:50;100919.60;;;18.58
68127;BMP180;54931;52.098;21.006;2023-08-12T05:15:20;100920.80;;;19.00
68127;BMP180;54931;52.098;21.006;2023-08-12T05:17:47;100923.80;;;19.38
68127;BMP180;54931;52.098;21.006;2023-08-12T05:20:15;100922.60;;;19.70
68127;BMP180;54931;52.098;21.006;2023-08-12T05:22:43;100920.00;;;20.00
68127;BMP180;54931;52.098;21.006;2023-08-12T05:25:10;100920.40;;;20.30
68127;BMP180;54931;52.098;21.006;2023-08-12T05:27:38;100922.40;;;20.58
68127;BMP180;54931;52.098;21.006;2023-08-12T05:30:07;100922.60;;;20.90
68127;BMP180;54931;52.098;21.006;2023-08-12T05:32:35;100924.20;;;21.10
68127;BMP180;54931;52.098;21.006;2023-08-12T05:35:03;100925.60;;;21.40
68127;BMP180;54931;52.098;21.006;2023-08-12T05:37:31;100924.80;;;21.64
68127;BMP180;54931;52.098;21.006;2023-08-12T05:39:59;100924.20;;;21.90
68127;BMP180;54931;52.098;21.006;2023-08-12T05:42:27;100927.40;;;22.10
68127;BMP180;54931;52.098;21.006;2023-08-12T05:44:55;100925.80;;;22.20
68127;BMP180;54931;52.098;21.006;2023-08-12T05:47:23;100920.20;;;22.30
68127;BMP180;54931;52.098;21.006;2023-08-12T05:49:50;100926.60;;;22.30
68127;BMP180;54931;52.098;21.006;2023-08-12T05:52:18;100925.60;;;22.50
68127;BMP180;54931;52.098;21.006;2023-08-12T05:54:45;100927.40;;;22.70
68127;BMP180;54931;52.098;21.006;2023-08-12T05:57:13;100928.40;;;22.90
68127;BMP180;54931;52.098;21.006;2023-08-12T05:59:40;100922.60;;;23.16
68127;BMP180;54931;52.098;21.006;2023-08-12T06:02:08;100923.20;;;23.30
68127;BMP180;54931;52.098;21.006;2023-08-12T06:04:36;100921.60;;;23.40
68127;BMP180;54931;52.098;21.006;2023-08-12T06:07:04;100920.40;;;23.52
68127;BMP180;54931;52.098;21.006;2023-08-12T06:09:32;100923.00;;;23.60
68127;BMP180;54931;52.098;21.006;2023-08-12T06:11:59;100920.40;;;23.82
68127;BMP180;54931;52.098;21.006;2023-08-12T06:14:28;100925.60;;;24.30
68127;BMP180;54931;52.098;21.006;2023-08-12T06:16:55;100928.40;;;24.32
68127;BMP180;54931;52.098;21.006;2023-08-12T06:19:23;100925.40;;;24.30
68127;BMP180;54931;52.098;21.006;2023-08-12T06:21:51;100927.60;;;24.30
68127;BMP180;54931;52.098;21.006;2023-08-12T06:24:19;100927.00;;;24.40
68127;BMP180;54931;52.098;21.006;2023-08-12T06:26:47;100928.40;;;24.52
68127;BMP180;54931;52.098;21.006;2023-08-12T06:29:14;100931.20;;;24.74
68127;BMP180;54931;52.098;21.006;2023-08-12T06:31:42;100932.60;;;24.80
68127;BMP180;54931;52.098;21.006;2023-08-12T06:34:10;100936.00;;;25.04
68127;BMP180;54931;52.098;21.006;2023-08-12T06:36:37;100935.40;;;25.20
68127;BMP180;54931;52.098;21.006;2023-08-12T06:39:05;100935.20;;;25.40
68127;BMP180;54931;52.098;21.006;2023-08-12T06:41:33;100936.60;;;25.60
68127;BMP180;54931;52.098;21.006;2023-08-12T06:44:00;100935.00;;;25.70
68127;BMP180;54931;52.098;21.006;2023-08-12T06:46:30;100937.20;;;25.80
68127;BMP180;54931;52.098;21.006;2023-08-12T06:48:58;100935.40;;;25.98
68127;BMP180;54931;52.098;21.006;2023-08-12T06:51:27;100940.40;;;26.10
68127;BMP180;54931;52.098;21.006;2023-08-12T06:53:54;100936.60;;;26.00
68127;BMP180;54931;52.098;21.006;2023-08-12T06:56:22;100943.00;;;26.18
68127;BMP180;54931;52.098;21.006;2023-08-12T06:58:50;100940.20;;;26.28
68127;BMP180;54931;52.098;21.006;2023-08-12T07:01:19;100942.60;;;26.20
68127;BMP180;54931;52.098;21.006;2023-08-12T07:03:47;100939.60;;;26.26
68127;BMP180;54931;52.098;21.006;2023-08-12T07:06:15;100944.00;;;26.26
68127;BMP180;54931;52.098;21.006;2023-08-12T07:08:43;100936.00;;;26.26
68127;BMP180;54931;52.098;21.006;2023-08-12T07:11:13;100934.60;;;26.30
68127;BMP180;54931;52.098;21.006;2023-08-12T07:13:41;100932.00;;;26.40
68127;BMP180;54931;52.098;21.006;2023-08-12T07:16:15;100931.20;;;26.40
68127;BMP180;54931;52.098;21.006;2023-08-12T07:18:43;100928.00;;;26.40
68127;BMP180;54931;52.098;21.006;2023-08-12T07:21:12;100928.80;;;26.30
68127;BMP180;54931;52.098;21.006;2023-08-12T07:23:40;100930.80;;;26.30
68127;BMP180;54931;52.098;21.006;2023-08-12T07:26:08;100932.00;;;26.62
68127;BMP180;54931;52.098;21.006;2023-08-12T07:28:35;100930.20;;;27.00
68127;BMP180;54931;52.098;21.006;2023-08-12T07:31:03;100931.80;;;27.20
68127;BMP180;54931;52.098;21.006;2023-08-12T07:33:34;100933.60;;;27.20
68127;BMP180;54931;52.098;21.006;2023-08-12T07:36:02;100925.80;;;27.20
68127;BMP180;54931;52.098;21.006;2023-08-12T07:38:31;100922.60;;;27.10
68127;BMP180;54931;52.098;21.006;2023-08-12T07:40:58;100925.40;;;27.08
68127;BMP180;54931;52.098;21.006;2023-08-12T07:43:27;100927.20;;;27.06
68127;BMP180;54931;52.098;21.006;2023-08-12T07:45:56;100923.60;;;27.06
68127;BMP180;54931;52.098;21.006;2023-08-12T07:48:26;100926.40;;;27.04
68127;BMP180;54931;52.098;21.006;2023-08-12T07:50:58;100920.20;;;26.90
68127;BMP180;54931;52.098;21.006;2023-08-12T07:53:26;100916.60;;;26.54
68127;BMP180;54931;52.098;21.006;2023-08-12T07:55:54;100918.20;;;26.40
68127;BMP180;54931;52.098;21.006;2023-08-12T07:58:22;100921.00;;;26.40
68127;BMP180;54931;52.098;21.006;2023-08-12T08:00:53;100911.00;;;26.44
68127;BMP180;54931;52.098;21.006;2023-08-12T08:03:22;100909.00;;;26.70
68127;BMP180;54931;52.098;21.006;2023-08-12T08:05:50;100908.40;;;26.90
68127;BMP180;54931;52.098;21.006;2023-08-12T08:08:20;100907.60;;;27.10
68127;BMP180;54931;52.098;21.006;2023-08-12T08:10:49;100909.40;;;27.30
68127;BMP180;54931;52.098;21.006;2023-08-12T08:13:17;100912.40;;;27.40
68127;BMP180;54931;52.098;21.006;2023-08-12T08:15:46;100911.20;;;27.50
68127;BMP180;54931;52.098;21.006;2023-08-12T08:18:14;100904.00;;;27.40
68127;BMP180;54931;52.098;21.006;2023-08-12T08:20:43;100909.80;;;27.32
68127;BMP180;54931;52.098;21.006;2023-08-12T08:23:12;100905.00;;;27.50
68127;BMP180;54931;52.098;21.006;2023-08-12T08:25:43;100899.20;;;27.40
68127;BMP180;54931;52.098;21.006;2023-08-12T08:28:11;100901.00;;;27.30
68127;BMP180;54931;52.098;21.006;2023-08-12T08:30:39;100899.00;;;27.58
68127;BMP180;54931;52.098;21.006;2023-08-12T08:33:07;100896.80;;;27.62
68127;BMP180;54931;52.098;21.006;2023-08-12T08:35:36;100901.00;;;27.80
68127;BMP180;54931;52.098;21.006;2023-08-12T08:38:04;100901.00;;;27.80
68127;BMP180;54931;52.098;21.006;2023-08-12T08:40:32;100892.60;;;27.60
68127;BMP180;54931;52.098;21.006;2023-08-12T08:43:02;100894.80;;;27.40
68127;BMP180;54931;52.098;21.006;2023-08-12T08:45:34;100893.80;;;27.30
68127;BMP180;54931;52.098;21.006;2023-08-12T08:48:03;100896.00;;;27.36
68127;BMP180;54931;52.098;21.006;2023-08-12T08:50:33;100891.40;;;27.60
68127;BMP180;54931;52.098;21.006;2023-08-12T08:53:02;100892.80;;;27.92
68127;BMP180;54931;52.098;21.006;2023-08-12T08:55:32;100889.40;;;28.20
68127;BMP180;54931;52.098;21.006;2023-08-12T08:58:01;100887.40;;;28.20
68127;BMP180;54931;52.098;21.006;2023-08-12T09:00:33;100887.20;;;28.38
68127;BMP180;54931;52.098;21.006;2023-08-12T09:03:05;100886.80;;;28.40
68127;BMP180;54931;52.098;21.006;2023-08-12T09:05:35;100890.00;;;28.50
68127;BMP180;54931;52.098;21.006;2023-08-12T09:08:07;100884.80;;;28.52
68127;BMP180;54931;52.098;21.006;2023-08-12T09:10:39;100882.00;;;28.60
68127;BMP180;54931;52.098;21.006;2023-08-12T09:13:08;100879.60;;;28.60
68127;BMP180;54931;52.098;21.006;2023-08-12T09:15:37;100876.80;;;28.60
68127;BMP180;54931;52.098;21.006;2023-08-12T09:18:07;100879.40;;;28.50
68127;BMP180;54931;52.098;21.006;2023-08-12T09:20:38;100875.80;;;28.52
68127;BMP180;54931;52.098;21.006;2023-08-12T09:23:06;100870.00;;;28.40
68127;BMP180;54931;52.098;21.006;2023-08-12T09:25:44;100866.80;;;28.50
68127;BMP180;54931;52.098;21.006;2023-08-12T09:28:15;100863.40;;;28.74
68127;BMP180;54931;52.098;21.006;2023-08-12T09:30:50;100864.20;;;28.96
68127;BMP180;54931;52.098;21.006;2023-08-12T09:33:25;100863.60;;;29.02
68127;BMP180;54931;52.098;21.006;2023-08-12T09:35:56;100865.80;;;29.10
68127;BMP180;54931;52.098;21.006;2023-08-12T09:38:25;100867.00;;;29.10
68127;BMP180;54931;52.098;21.006;2023-08-12T09:40:53;100870.00;;;29.02
68127;BMP180;54931;52.098;21.006;2023-08-12T09:43:24;100867.00;;;29.18
68127;BMP180;54931;52.098;21.006;2023-08-12T09:45:58;100869.60;;;29.10
68127;BMP180;54931;52.098;21.006;2023-08-12T09:48:29;100865.40;;;29.10
68127;BMP180;54931;52.098;21.006;2023-08-12T09:50:57;100864.20;;;29.00
68127;BMP180;54931;52.098;21.006;2023-08-12T09:53:27;100861.20;;;29.00
68127;BMP180;54931;52.098;21.006;2023-08-12T09:56:00;100862.60;;;28.90
68127;BMP180;54931;52.098;21.006;2023-08-12T09:58:31;100855.80;;;29.00
68127;BMP180;54931;52.098;21.006;2023-08-12T10:01:01;100852.80;;;28.70
68127;BMP180;54931;52.098;21.006;2023-08-12T10:03:29;100853.80;;;28.60
68127;BMP180;54931;52.098;21.006;2023-08-12T10:05:57;100847.60;;;28.70
68127;BMP180;54931;52.098;21.006;2023-08-12T10:08:27;100848.60;;;28.90
68127;BMP180;54931;52.098;21.006;2023-08-12T10:10:56;100845.20;;;28.90
68127;BMP180;54931;52.098;21.006;2023-08-12T10:13:24;100847.40;;;29.00
68127;BMP180;54931;52.098;21.006;2023-08-12T10:15:51;100843.60;;;29.00
68127;BMP180;54931;52.098;21.006;2023-08-12T10:18:22;100839.00;;;29.14
68127;BMP180;54931;52.098;21.006;2023-08-12T10:20:52;100836.80;;;29.10
68127;BMP180;54931;52.098;21.006;2023-08-12T10:23:23;100829.00;;;29.30
68127;BMP180;54931;52.098;21.006;2023-08-12T10:25:54;100830.20;;;29.38
68127;BMP180;54931;52.098;21.006;2023-08-12T10:28:22;100827.20;;;29.20
68127;BMP180;54931;52.098;21.006;2023-08-12T10:30:51;100827.20;;;29.30
68127;BMP180;54931;52.098;21.006;2023-08-12T10:33:19;100828.20;;;29.40
68127;BMP180;54931;52.098;21.006;2023-08-12T10:35:49;100826.00;;;29.32
68127;BMP180;54931;52.098;21.006;2023-08-12T10:38:20;100833.20;;;29.42
68127;BMP180;54931;52.098;21.006;2023-08-12T10:40:48;100825.00;;;29.40
68127;BMP180;54931;52.098;21.006;2023-08-12T10:43:16;100823.60;;;29.38
68127;BMP180;54931;52.098;21.006;2023-08-12T10:45:49;100820.20;;;29.30
68127;BMP180;54931;52.098;21.006;2023-08-12T10:48:24;100816.60;;;29.00
68127;BMP180;54931;52.098;21.006;2023-08-12T10:50:54;100816.00;;;28.74
68127;BMP180;54931;52.098;21.006;2023-08-12T10:53:32;100816.60;;;28.64
68127;BMP180;54931;52.098;21.006;2023-08-12T10:56:04;100818.00;;;28.30
68127;BMP180;54931;52.098;21.006;2023-08-12T10:58:46;100807.00;;;28.18
68127;BMP180;54931;52.098;21.006;2023-08-12T11:01:18;100804.20;;;28.10
68127;BMP180;54931;52.098;21.006;2023-08-12T11:03:48;100806.00;;;27.90
68127;BMP180;54931;52.098;21.006;2023-08-12T11:06:16;100799.20;;;27.90
68127;BMP180;54931;52.098;21.006;2023-08-12T11:08:55;100800.80;;;28.00
68127;BMP180;54931;52.098;21.006;2023-08-12T11:11:24;100798.60;;;28.06
68127;BMP180;54931;52.098;21.006;2023-08-12T11:13:54;100798.00;;;28.00
68127;BMP180;54931;52.098;21.006;2023-08-12T11:16:36;100796.20;;;27.90
68127;BMP180;54931;52.098;21.006;2023-08-12T11:19:04;100788.00;;;27.70
68127;BMP180;54931;52.098;21.006;2023-08-12T11:21:36;100788.00;;;27.70
68127;BMP180;54931;52.098;21.006;2023-08-12T11:24:05;100785.60;;;27.60
68127;BMP180;54931;52.098;21.006;2023-08-12T11:26:33;100781.60;;;27.68
68127;BMP180;54931;52.098;21.006;2023-08-12T11:29:01;100784.60;;;27.72
68127;BMP180;54931;52.098;21.006;2023-08-12T11:31:29;100784.00;;;27.50
68127;BMP180;54931;52.098;21.006;2023-08-12T11:33:56;100782.60;;;27.30
68127;BMP180;54931;52.098;21.006;2023-08-12T11:36:26;100781.00;;;27.20
68127;BMP180;54931;52.098;21.006;2023-08-12T11:38:53;100776.20;;;27.10
68127;BMP180;54931;52.098;21.006;2023-08-12T11:41:23;100780.00;;;26.90
68127;BMP180;54931;52.098;21.006;2023-08-12T11:43:50;100779.80;;;26.70
68127;BMP180;54931;52.098;21.006;2023-08-12T11:46:18;100770.20;;;26.50
68127;BMP180;54931;52.098;21.006;2023-08-12T11:48:45;100771.20;;;26.50
68127;BMP180;54931;52.098;21.006;2023-08-12T11:51:14;100769.40;;;26.30
68127;BMP180;54931;52.098;21.006;2023-08-12T11:53:41;100769.20;;;26.20
68127;BMP180;54931;52.098;21.006;2023-08-12T11:56:09;100765.20;;;26.10
68127;BMP180;54931;52.098;21.006;2023-08-12T11:58:37;100763.20;;;26.20
68127;BMP180;54931;52.098;21.006;2023-08-12T12:01:05;100759.20;;;26.10
68127;BMP180;54931;52.098;21.006;2023-08-12T12:03:34;100759.00;;;26.10
68127;BMP180;54931;52.098;21.006;2023-08-12T12:06:02;100758.60;;;26.10
68127;BMP180;54931;52.098;21.006;2023-08-12T12:08:31;100757.00;;;26.10
68127;BMP180;54931;52.098;21.006;2023-08-12T12:11:05;100752.40;;;26.00
68127;BMP180;54931;52.098;21.006;2023-08-12T12:13:34;100754.60;;;26.10
68127;BMP180;54931;52.098;21.006;2023-08-12T12:16:02;100749.60;;;26.20
68127;BMP180;54931;52.098;21.006;2023-08-12T12:18:29;100745.80;;;26.10
68127;BMP180;54931;52.098;21.006;2023-08-12T12:20:58;100739.40;;;26.00
68127;BMP180;54931;52.098;21.006;2023-08-12T12:23:30;100735.40;;;26.10
68127;BMP180;54931;52.098;21.006;2023-08-12T12:26:03;100734.60;;;26.10
68127;BMP180;54931;52.098;21.006;2023-08-12T12:28:31;100731.20;;;26.20
68127;BMP180;54931;52.098;21.006;2023-08-12T12:30:59;100728.00;;;26.32
68127;BMP180;54931;52.098;21.006;2023-08-12T12:33:27;100722.60;;;26.30
68127;BMP180;54931;52.098;21.006;2023-08-12T12:35:57;100725.60;;;26.40
68127;BMP180;54931;52.098;21.006;2023-08-12T12:38:27;100727.20;;;26.30
68127;BMP180;54931;52.098;21.006;2023-08-12T12:40:56;100723.40;;;26.36
68127;BMP180;54931;52.098;21.006;2023-08-12T12:43:24;100720.80;;;26.40
68127;BMP180;54931;52.098;21.006;2023-08-12T12:45:54;100713.40;;;26.48
68127;BMP180;54931;52.098;21.006;2023-08-12T12:48:22;100713.40;;;26.50
68127;BMP180;54931;52.098;21.006;2023-08-12T12:50:50;100710.60;;;26.52
68127;BMP180;54931;52.098;21.006;2023-08-12T12:53:25;100714.20;;;26.60
68127;BMP180;54931;52.098;21.006;2023-08-12T12:55:56;100709.80;;;26.60
68127;BMP180;54931;52.098;21.006;2023-08-12T12:58:26;100709.00;;;26.70
68127;BMP180;54931;52.098;21.006;2023-08-12T13:00:54;100708.60;;;26.78
68127;BMP180;54931;52.098;21.006;2023-08-12T13:03:27;100712.00;;;26.80
68127;BMP180;54931;52.098;21.006;2023-08-12T13:05:59;100711.20;;;26.90
68127;BMP180;54931;52.098;21.006;2023-08-12T13:08:29;100708.20;;;26.94
68127;BMP180;54931;52.098;21.006;2023-08-12T13:11:01;100700.80;;;27.00
68127;BMP180;54931;52.098;21.006;2023-08-12T13:13:31;100699.80;;;26.90
68127;BMP180;54931;52.098;21.006;2023-08-12T13:16:06;100695.20;;;26.90
68127;BMP180;54931;52.098;21.006;2023-08-12T13:18:36;100696.20;;;26.90
68127;BMP180;54931;52.098;21.006;2023-08-12T13:21:10;100692.60;;;26.90
68127;BMP180;54931;52.098;21.006;2023-08-12T13:23:40;100690.20;;;26.70
68127;BMP180;54931;52.098;21.006;2023-08-12T13:26:09;100685.40;;;26.70
68127;BMP180;54931;52.098;21.006;2023-08-12T13:28:40;100686.40;;;26.70
68127;BMP180;54931;52.098;21.006;2023-08-12T13:31:22;100685.40;;;26.70
68127;BMP180;54931;52.098;21.006;2023-08-12T13:33:51;100685.00;;;26.80
68127;BMP180;54931;52.098;21.006;2023-08-12T13:36:24;100684.00;;;26.90
68127;BMP180;54931;52.098;21.006;2023-08-12T13:38:52;100689.00;;;27.00
68127;BMP180;54931;52.098;21.006;2023-08-12T13:41:23;100690.00;;;27.10
68127;BMP180;54931;52.098;21.006;2023-08-12T13:43:51;100689.20;;;27.20
68127;BMP180;54931;52.098;21.006;2023-08-12T13:46:20;100688.00;;;27.20
68127;BMP180;54931;52.098;21.006;2023-08-12T13:48:52;100684.40;;;27.30
68127;BMP180;54931;52.098;21.006;2023-08-12T13:51:21;100678.60;;;27.38
68127;BMP180;54931;52.098;21.006;2023-08-12T13:53:49;100678.20;;;27.42
68127;BMP180;54931;52.098;21.006;2023-08-12T13:56:19;100674.40;;;27.50